sensor_id;sensor_type;location;lat;lon;timestamp;P1;durP1;ratioP1;P2;durP2;ratioP2
79122;SDS011;68526;44.600;26.032;2023-03-14T00:00:05;36.60;;;23.65;;
79122;SDS011;68526;44.600;26.032;2023-03-14T00:00:23;38.13;;;24.33;;
79122;SDS011;68526;44.600;26.032;2023-03-14T00:00:39;37.88;;;24.50;;
79122;SDS011;68526;44.600;26.032;2023-03-14T00:00:55;37.30;;;24.97;;
79122;SDS011;68526;44.600;26.032;2023-03-14T00:01:11;35.08;;;24.15;;
79122;SDS011;68526;44.600;26.032;2023-03-14T00:01:29;36.05;;;24.55;;
79122;SDS011;68526;44.600;26.032;2023-03-14T00:01:45;36.85;;;24.17;;
79122;SDS011;68526;44.600;26.032;2023-03-14T00:02:01;34.63;;;23.33;;
79122;SDS011;68526;44.600;26.032;2023-03-14T00:02:17;34.13;;;24.15;;
79122;SDS011;68526;44.600;26.032;2023-03-14T00:02:32;33.83;;;24.10;;
79122;SDS011;68526;44.600;26.032;2023-03-14T00:02:51;33.63;;;23.92;;
79122;SDS011;68526;44.600;26.032;2023-03-14T00:03:07;37.55;;;23.85;;
79122;SDS011;68526;44.600;26.032;2023-03-14T00:03:23;38.05;;;24.38;;
79122;SDS011;68526;44.600;26.032;2023-03-14T00:03:39;39.15;;;25.15;;
79122;SDS011;68526;44.600;26.032;2023-03-14T00:03:55;39.30;;;25.67;;
79122;SDS011;68526;44.600;26.032;2023-03-14T00:04:11;38.80;;;25.00;;
79122;SDS011;68526;44.600;26.032;2023-03-14T00:04:27;37.40;;;24.15;;
79122;SDS011;68526;44.600;26.032;2023-03-14T00:04:43;36.55;;;23.83;;
79122;SDS011;68526;44.600;26.032;2023-03-14T00:04:59;39.30;;;24.17;;
79122;SDS011;68526;44.600;26.032;2023-03-14T00:05:17;39.03;;;24.23;;
79122;SDS011;68526;44.600;26.032;2023-03-14T00:05:34;37.28;;;24.17;;
79122;SDS011;68526;44.600;26.032;2023-03-14T00:05:50;36.80;;;24.77;;
79122;SDS011;68526;44.600;26.032;2023-03-14T00:06:06;35.05;;;24.75;;
79122;SDS011;68526;44.600;26.032;2023-03-14T00:06:23;34.47;;;24.98;;
79122;SDS011;68526;44.600;26.032;2023-03-14T00:06:40;35.20;;;24.33;;
79122;SDS011;68526;44.600;26.032;2023-03-14T00:06:56;37.47;;;24.07;;
79122;SDS011;68526;44.600;26.032;2023-03-14T00:07:12;37.42;;;24.38;;
79122;SDS011;68526;44.600;26.032;2023-03-14T00:07:28;37.95;;;25.13;;
79122;SDS011;68526;44.600;26.032;2023-03-14T00:07:46;37.15;;;24.80;;
79122;SDS011;68526;44.600;26.032;2023-03-14T00:08:02;37.00;;;24.75;;
79122;SDS011;68526;44.600;26.032;2023-03-14T00:08:18;35.50;;;24.27;;
79122;SDS011;68526;44.600;26.032;2023-03-14T00:08:36;35.55;;;24.17;;
79122;SDS011;68526;44.600;26.032;2023-03-14T00:08:52;37.13;;;24.35;;
79122;SDS011;68526;44.600;26.032;2023-03-14T00:09:09;38.13;;;24.95;;
79122;SDS011;68526;44.600;26.032;2023-03-14T00:09:25;37.07;;;25.57;;
79122;SDS011;68526;44.600;26.032;2023-03-14T00:09:41;34.83;;;24.55;;
79122;SDS011;68526;44.600;26.032;2023-03-14T00:09:58;35.70;;;23.88;;
79122;SDS011;68526;44.600;26.032;2023-03-14T00:10:14;37.60;;;23.90;;
79122;SDS011;68526;44.600;26.032;2023-03-14T00:10:30;35.85;;;23.92;;
79122;SDS011;68526;44.600;26.032;2023-03-14T00:10:46;35.07;;;23.87;;
79122;SDS011;68526;44.600;26.032;2023-03-14T00:11:06;38.00;;;23.95;;
79122;SDS011;68526;44.600;26.032;2023-03-14T00:11:22;35.00;;;23.55;;
79122;SDS011;68526;44.600;26.032;2023-03-14T00:11:39;34.67;;;24.60;;
79122;SDS011;68526;44.600;26.032;2023-03-14T00:11:55;36.22;;;25.10;;
79122;SDS011;68526;44.600;26.032;2023-03-14T00:12:11;35.83;;;23.75;;
79122;SDS011;68526;44.600;26.032;2023-03-14T00:12:29;36.60;;;24.02;;
79122;SDS011;68526;44.600;26.032;2023-03-14T00:12:46;38.45;;;25.20;;
79122;SDS011;68526;44.600;26.032;2023-03-14T00:13:02;37.60;;;24.65;;
79122;SDS011;68526;44.600;26.032;2023-03-14T00:13:18;37.22;;;24.83;;
79122;SDS011;68526;44.600;26.032;2023-03-14T00:13:34;37.10;;;24.50;;
79122;SDS011;68526;44.600;26.032;2023-03-14T00:13:50;35.75;;;24.15;;
79122;SDS011;68526;44.600;26.032;2023-03-14T00:14:06;35.53;;;23.67;;
79122;SDS011;68526;44.600;26.032;2023-03-14T00:14:22;37.63;;;23.67;;
79122;SDS011;68526;44.600;26.032;2023-03-14T00:14:38;35.25;;;23.60;;
79122;SDS011;68526;44.600;26.032;2023-03-14T00:14:59;35.42;;;24.75;;
79122;SDS011;68526;44.600;26.032;2023-03-14T00:15:15;37.15;;;25.42;;
79122;SDS011;68526;44.600;26.032;2023-03-14T00:15:31;35.33;;;24.50;;
79122;SDS011;68526;44.600;26.032;2023-03-14T00:15:49;33.45;;;23.50;;
79122;SDS011;68526;44.600;26.032;2023-03-14T00:16:05;35.88;;;23.85;;
79122;SDS011;68526;44.600;26.032;2023-03-14T00:16:22;36.80;;;24.48;;
79122;SDS011;68526;44.600;26.032;2023-03-14T00:16:38;35.92;;;24.88;;
79122;SDS011;68526;44.600;26.032;2023-03-14T00:16:54;32.78;;;23.65;;
79122;SDS011;68526;44.600;26.032;2023-03-14T00:17:09;32.37;;;23.30;;
79122;SDS011;68526;44.600;26.032;2023-03-14T00:17:26;34.17;;;23.92;;
79122;SDS011;68526;44.600;26.032;2023-03-14T00:17:42;34.38;;;24.45;;
79122;SDS011;68526;44.600;26.032;2023-03-14T00:17:59;35.85;;;23.90;;
79122;SDS011;68526;44.600;26.032;2023-03-14T00:18:15;36.57;;;23.63;;
79122;SDS011;68526;44.600;26.032;2023-03-14T00:18:31;34.92;;;24.27;;
79122;SDS011;68526;44.600;26.032;2023-03-14T00:18:48;36.72;;;25.08;;
79122;SDS011;68526;44.600;26.032;2023-03-14T00:19:04;37.70;;;24.52;;
79122;SDS011;68526;44.600;26.032;2023-03-14T00:19:20;35.65;;;24.27;;
79122;SDS011;68526;44.600;26.032;2023-03-14T00:19:35;34.10;;;23.95;;
79122;SDS011;68526;44.600;26.032;2023-03-14T00:19:52;34.88;;;24.17;;
79122;SDS011;68526;44.600;26.032;2023-03-14T00:20:09;35.85;;;25.63;;
79122;SDS011;68526;44.600;26.032;2023-03-14T00:20:27;34.80;;;24.73;;
79122;SDS011;68526;44.600;26.032;2023-03-14T00:20:43;34.10;;;23.70;;
79122;SDS011;68526;44.600;26.032;2023-03-14T00:20:58;33.20;;;23.83;;
79122;SDS011;68526;44.600;26.032;2023-03-14T00:21:15;34.85;;;24.80;;
79122;SDS011;68526;44.600;26.032;2023-03-14T00:21:31;35.30;;;24.55;;
79122;SDS011;68526;44.600;26.032;2023-03-14T00:21:46;35.00;;;24.70;;
79122;SDS011;68526;44.600;26.032;2023-03-14T00:22:02;37.07;;;25.47;;
79122;SDS011;68526;44.600;26.032;2023-03-14T00:22:19;36.67;;;24.52;;
79122;SDS011;68526;44.600;26.032;2023-03-14T00:22:36;34.53;;;23.15;;
79122;SDS011;68526;44.600;26.032;2023-03-14T00:22:52;34.65;;;23.42;;
79122;SDS011;68526;44.600;26.032;2023-03-14T00:23:08;36.70;;;24.52;;
79122;SDS011;68526;44.600;26.032;2023-03-14T00:23:23;36.78;;;24.48;;
79122;SDS011;68526;44.600;26.032;2023-03-14T00:23:40;35.20;;;24.02;;
79122;SDS011;68526;44.600;26.032;2023-03-14T00:23:58;37.60;;;24.30;;
79122;SDS011;68526;44.600;26.032;2023-03-14T00:24:13;35.80;;;24.10;;
79122;SDS011;68526;44.600;26.032;2023-03-14T00:24:29;32.65;;;23.60;;
79122;SDS011;68526;44.600;26.032;2023-03-14T00:24:45;34.50;;;23.37;;
79122;SDS011;68526;44.600;26.032;2023-03-14T00:25:01;35.72;;;23.85;;
79122;SDS011;68526;44.600;26.032;2023-03-14T00:25:18;35.03;;;24.50;;
79122;SDS011;68526;44.600;26.032;2023-03-14T00:25:34;35.95;;;24.65;;
79122;SDS011;68526;44.600;26.032;2023-03-14T00:25:50;36.03;;;24.40;;
79122;SDS011;68526;44.600;26.032;2023-03-14T00:26:07;35.80;;;24.65;;
79122;SDS011;68526;44.600;26.032;2023-03-14T00:26:24;35.13;;;24.67;;
79122;SDS011;68526;44.600;26.032;2023-03-14T00:26:41;34.90;;;24.10;;
79122;SDS011;68526;44.600;26.032;2023-03-14T00:26:57;34.45;;;23.92;;
79122;SDS011;68526;44.600;26.032;2023-03-14T00:27:12;35.00;;;24.23;;
79122;SDS011;68526;44.600;26.032;2023-03-14T00:27:28;37.05;;;25.05;;
79122;SDS011;68526;44.600;26.032;2023-03-14T00:27:44;36.38;;;25.27;;
79122;SDS011;68526;44.600;26.032;2023-03-14T00:28:00;35.05;;;25.15;;
79122;SDS011;68526;44.600;26.032;2023-03-14T00:28:16;35.67;;;24.65;;
79122;SDS011;68526;44.600;26.032;2023-03-14T00:28:32;35.33;;;24.48;;
79122;SDS011;68526;44.600;26.032;2023-03-14T00:28:51;33.85;;;23.80;;
79122;SDS011;68526;44.600;26.032;2023-03-14T00:29:08;34.10;;;24.08;;
79122;SDS011;68526;44.600;26.032;2023-03-14T00:29:24;35.10;;;24.25;;
79122;SDS011;68526;44.600;26.032;2023-03-14T00:29:39;36.38;;;24.73;;
79122;SDS011;68526;44.600;26.032;2023-03-14T00:29:58;37.40;;;24.65;;
79122;SDS011;68526;44.600;26.032;2023-03-14T00:30:16;37.65;;;24.80;;
79122;SDS011;68526;44.600;26.032;2023-03-14T00:30:32;36.42;;;24.35;;
79122;SDS011;68526;44.600;26.032;2023-03-14T00:30:48;34.65;;;24.52;;
79122;SDS011;68526;44.600;26.032;2023-03-14T00:31:04;36.23;;;25.13;;
79122;SDS011;68526;44.600;26.032;2023-03-14T00:31:21;37.13;;;25.00;;
79122;SDS011;68526;44.600;26.032;2023-03-14T00:31:36;37.28;;;25.33;;
79122;SDS011;68526;44.600;26.032;2023-03-14T00:31:54;38.53;;;25.65;;
79122;SDS011;68526;44.600;26.032;2023-03-14T00:32:10;38.97;;;25.63;;
79122;SDS011;68526;44.600;26.032;2023-03-14T00:32:26;37.63;;;26.15;;
79122;SDS011;68526;44.600;26.032;2023-03-14T00:32:41;41.55;;;25.52;;
79122;SDS011;68526;44.600;26.032;2023-03-14T00:32:58;40.55;;;25.27;;
79122;SDS011;68526;44.600;26.032;2023-03-14T00:33:14;36.80;;;24.98;;
79122;SDS011;68526;44.600;26.032;2023-03-14T00:33:30;37.85;;;25.40;;
79122;SDS011;68526;44.600;26.032;2023-03-14T00:33:46;38.15;;;25.98;;
79122;SDS011;68526;44.600;26.032;2023-03-14T00:34:02;38.38;;;26.13;;
79122;SDS011;68526;44.600;26.032;2023-03-14T00:34:18;41.05;;;26.58;;
79122;SDS011;68526;44.600;26.032;2023-03-14T00:34:35;37.77;;;26.13;;
79122;SDS011;68526;44.600;26.032;2023-03-14T00:34:52;35.72;;;25.08;;
79122;SDS011;68526;44.600;26.032;2023-03-14T00:35:08;39.20;;;25.42;;
79122;SDS011;68526;44.600;26.032;2023-03-14T00:35:24;39.60;;;25.75;;
79122;SDS011;68526;44.600;26.032;2023-03-14T00:35:40;36.67;;;26.13;;
79122;SDS011;68526;44.600;26.032;2023-03-14T00:35:56;37.22;;;25.77;;
79122;SDS011;68526;44.600;26.032;2023-03-14T00:36:15;36.95;;;25.42;;
79122;SDS011;68526;44.600;26.032;2023-03-14T00:36:33;36.80;;;24.80;;
79122;SDS011;68526;44.600;26.032;2023-03-14T00:36:48;39.47;;;26.67;;
79122;SDS011;68526;44.600;26.032;2023-03-14T00:37:04;39.45;;;26.80;;
79122;SDS011;68526;44.600;26.032;2023-03-14T00:37:20;38.53;;;25.35;;
79122;SDS011;68526;44.600;26.032;2023-03-14T00:37:36;36.72;;;24.60;;
79122;SDS011;68526;44.600;26.032;2023-03-14T00:37:52;36.60;;;25.70;;
79122;SDS011;68526;44.600;26.032;2023-03-14T00:38:08;37.60;;;26.38;;
79122;SDS011;68526;44.600;26.032;2023-03-14T00:38:24;38.43;;;26.47;;
79122;SDS011;68526;44.600;26.032;2023-03-14T00:38:40;38.30;;;26.25;;
79122;SDS011;68526;44.600;26.032;2023-03-14T00:38:57;37.90;;;25.63;;
79122;SDS011;68526;44.600;26.032;2023-03-14T00:39:13;36.35;;;24.80;;
79122;SDS011;68526;44.600;26.032;2023-03-14T00:39:30;35.93;;;24.30;;
79122;SDS011;68526;44.600;26.032;2023-03-14T00:39:45;35.25;;;23.40;;
79122;SDS011;68526;44.600;26.032;2023-03-14T00:40:01;36.58;;;24.55;;
79122;SDS011;68526;44.600;26.032;2023-03-14T00:40:20;37.47;;;25.10;;
79122;SDS011;68526;44.600;26.032;2023-03-14T00:40:38;36.50;;;24.48;;
79122;SDS011;68526;44.600;26.032;2023-03-14T00:40:54;35.33;;;24.33;;
79122;SDS011;68526;44.600;26.032;2023-03-14T00:41:11;34.47;;;24.52;;
79122;SDS011;68526;44.600;26.032;2023-03-14T00:41:29;36.03;;;25.60;;
79122;SDS011;68526;44.600;26.032;2023-03-14T00:41:45;34.85;;;25.30;;
79122;SDS011;68526;44.600;26.032;2023-03-14T00:42:01;35.38;;;24.95;;
79122;SDS011;68526;44.600;26.032;2023-03-14T00:42:17;36.80;;;25.03;;
79122;SDS011;68526;44.600;26.032;2023-03-14T00:42:32;37.17;;;25.52;;
79122;SDS011;68526;44.600;26.032;2023-03-14T00:42:49;38.00;;;26.30;;
79122;SDS011;68526;44.600;26.032;2023-03-14T00:43:05;37.45;;;25.90;;
79122;SDS011;68526;44.600;26.032;2023-03-14T00:43:21;37.00;;;25.33;;
79122;SDS011;68526;44.600;26.032;2023-03-14T00:43:37;36.67;;;24.70;;
79122;SDS011;68526;44.600;26.032;2023-03-14T00:43:53;36.17;;;24.63;;
79122;SDS011;68526;44.600;26.032;2023-03-14T00:44:09;37.65;;;25.08;;
79122;SDS011;68526;44.600;26.032;2023-03-14T00:44:25;37.88;;;25.08;;
79122;SDS011;68526;44.600;26.032;2023-03-14T00:44:41;37.17;;;25.50;;
79122;SDS011;68526;44.600;26.032;2023-03-14T00:44:58;37.00;;;25.35;;
79122;SDS011;68526;44.600;26.032;2023-03-14T00:45:14;38.65;;;25.20;;
79122;SDS011;68526;44.600;26.032;2023-03-14T00:45:30;38.72;;;25.60;;
79122;SDS011;68526;44.600;26.032;2023-03-14T00:45:47;36.42;;;24.98;;
79122;SDS011;68526;44.600;26.032;2023-03-14T00:46:03;37.13;;;24.67;;
79122;SDS011;68526;44.600;26.032;2023-03-14T00:46:20;38.85;;;26.05;;
79122;SDS011;68526;44.600;26.032;2023-03-14T00:46:35;39.00;;;26.20;;
79122;SDS011;68526;44.600;26.032;2023-03-14T00:46:51;37.70;;;25.55;;
79122;SDS011;68526;44.600;26.032;2023-03-14T00:47:07;37.75;;;25.52;;
79122;SDS011;68526;44.600;26.032;2023-03-14T00:47:24;38.47;;;25.95;;
79122;SDS011;68526;44.600;26.032;2023-03-14T00:47:40;36.17;;;24.70;;
79122;SDS011;68526;44.600;26.032;2023-03-14T00:48:00;36.65;;;24.75;;
79122;SDS011;68526;44.600;26.032;2023-03-14T00:48:16;37.17;;;24.93;;
79122;SDS011;68526;44.600;26.032;2023-03-14T00:48:32;36.95;;;24.80;;
79122;SDS011;68526;44.600;26.032;2023-03-14T00:48:48;38.55;;;25.23;;
79122;SDS011;68526;44.600;26.032;2023-03-14T00:49:05;36.92;;;25.00;;
79122;SDS011;68526;44.600;26.032;2023-03-14T00:49:21;35.15;;;24.80;;
79122;SDS011;68526;44.600;26.032;2023-03-14T00:49:36;36.87;;;25.30;;
79122;SDS011;68526;44.600;26.032;2023-03-14T00:49:52;38.20;;;26.00;;
79122;SDS011;68526;44.600;26.032;2023-03-14T00:50:09;35.55;;;25.48;;
79122;SDS011;68526;44.600;26.032;2023-03-14T00:50:26;32.80;;;24.52;;
79122;SDS011;68526;44.600;26.032;2023-03-14T00:50:42;32.97;;;24.50;;
79122;SDS011;68526;44.600;26.032;2023-03-14T00:50:59;34.63;;;24.92;;
79122;SDS011;68526;44.600;26.032;2023-03-14T00:51:15;35.25;;;25.00;;
79122;SDS011;68526;44.600;26.032;2023-03-14T00:51:30;35.58;;;24.80;;
79122;SDS011;68526;44.600;26.032;2023-03-14T00:51:46;36.37;;;24.63;;
79122;SDS011;68526;44.600;26.032;2023-03-14T00:52:03;35.72;;;23.70;;
79122;SDS011;68526;44.600;26.032;2023-03-14T00:52:19;35.08;;;24.05;;
79122;SDS011;68526;44.600;26.032;2023-03-14T00:52:35;36.17;;;25.55;;
79122;SDS011;68526;44.600;26.032;2023-03-14T00:52:51;36.80;;;25.83;;
79122;SDS011;68526;44.600;26.032;2023-03-14T00:53:07;35.47;;;25.17;;
79122;SDS011;68526;44.600;26.032;2023-03-14T00:53:24;35.92;;;24.25;;
79122;SDS011;68526;44.600;26.032;2023-03-14T00:53:39;36.72;;;24.52;;
79122;SDS011;68526;44.600;26.032;2023-03-14T00:53:55;34.53;;;24.48;;
79122;SDS011;68526;44.600;26.032;2023-03-14T00:54:11;36.60;;;25.27;;
79122;SDS011;68526;44.600;26.032;2023-03-14T00:54:27;39.40;;;26.07;;
79122;SDS011;68526;44.600;26.032;2023-03-14T00:54:44;38.50;;;25.83;;
79122;SDS011;68526;44.600;26.032;2023-03-14T00:55:00;37.05;;;25.33;;
79122;SDS011;68526;44.600;26.032;2023-03-14T00:55:15;37.67;;;26.20;;
79122;SDS011;68526;44.600;26.032;2023-03-14T00:55:31;37.40;;;26.00;;
79122;SDS011;68526;44.600;26.032;2023-03-14T00:55:51;37.25;;;25.08;;
79122;SDS011;68526;44.600;26.032;2023-03-14T00:56:07;37.67;;;25.67;;
79122;SDS011;68526;44.600;26.032;2023-03-14T00:56:25;36.65;;;24.52;;
79122;SDS011;68526;44.600;26.032;2023-03-14T00:56:41;36.45;;;25.73;;
79122;SDS011;68526;44.600;26.032;2023-03-14T00:56:57;37.13;;;26.30;;
79122;SDS011;68526;44.600;26.032;2023-03-14T00:57:13;35.30;;;25.13;;
79122;SDS011;68526;44.600;26.032;2023-03-14T00:57:29;34.40;;;24.50;;
79122;SDS011;68526;44.600;26.032;2023-03-14T00:57:45;35.45;;;24.73;;
79122;SDS011;68526;44.600;26.032;2023-03-14T00:58:00;36.57;;;24.27;;
79122;SDS011;68526;44.600;26.032;2023-03-14T00:58:17;37.13;;;24.95;;
79122;SDS011;68526;44.600;26.032;2023-03-14T00:58:33;35.88;;;25.10;;
79122;SDS011;68526;44.600;26.032;2023-03-14T00:58:49;35.83;;;25.50;;
79122;SDS011;68526;44.600;26.032;2023-03-14T00:59:09;35.90;;;25.08;;
79122;SDS011;68526;44.600;26.032;2023-03-14T00:59:24;35.15;;;24.85;;
79122;SDS011;68526;44.600;26.032;2023-03-14T00:59:40;37.67;;;25.48;;
79122;SDS011;68526;44.600;26.032;2023-03-14T00:59:58;37.03;;;25.42;;
79122;SDS011;68526;44.600;26.032;2023-03-14T01:00:14;36.25;;;25.23;;
79122;SDS011;68526;44.600;26.032;2023-03-14T01:00:30;35.67;;;24.77;;
79122;SDS011;68526;44.600;26.032;2023-03-14T01:00:46;37.15;;;25.40;;
79122;SDS011;68526;44.600;26.032;2023-03-14T01:01:05;38.53;;;26.25;;
79122;SDS011;68526;44.600;26.032;2023-03-14T01:01:21;36.58;;;24.45;;
79122;SDS011;68526;44.600;26.032;2023-03-14T01:01:38;35.13;;;24.38;;
79122;SDS011;68526;44.600;26.032;2023-03-14T01:01:54;36.80;;;25.30;;
79122;SDS011;68526;44.600;26.032;2023-03-14T01:02:10;37.92;;;25.73;;
79122;SDS011;68526;44.600;26.032;2023-03-14T01:02:26;36.30;;;24.97;;
79122;SDS011;68526;44.600;26.032;2023-03-14T01:02:42;35.72;;;24.58;;
79122;SDS011;68526;44.600;26.032;2023-03-14T01:02:58;37.45;;;24.67;;
79122;SDS011;68526;44.600;26.032;2023-03-14T01:03:15;37.45;;;24.92;;
79122;SDS011;68526;44.600;26.032;2023-03-14T01:03:31;37.22;;;25.38;;
79122;SDS011;68526;44.600;26.032;2023-03-14T01:03:47;37.33;;;25.13;;
79122;SDS011;68526;44.600;26.032;2023-03-14T01:04:06;36.25;;;25.02;;
79122;SDS011;68526;44.600;26.032;2023-03-14T01:04:22;32.92;;;23.70;;
79122;SDS011;68526;44.600;26.032;2023-03-14T01:04:39;32.13;;;22.88;;
79122;SDS011;68526;44.600;26.032;2023-03-14T01:04:55;34.50;;;23.65;;
79122;SDS011;68526;44.600;26.032;2023-03-14T01:05:10;35.67;;;24.85;;
79122;SDS011;68526;44.600;26.032;2023-03-14T01:05:26;35.00;;;25.35;;
79122;SDS011;68526;44.600;26.032;2023-03-14T01:05:43;33.97;;;25.40;;
79122;SDS011;68526;44.600;26.032;2023-03-14T01:06:06;35.65;;;25.20;;
79122;SDS011;68526;44.600;26.032;2023-03-14T01:06:23;36.65;;;25.00;;
79122;SDS011;68526;44.600;26.032;2023-03-14T01:06:41;34.95;;;24.27;;
79122;SDS011;68526;44.600;26.032;2023-03-14T01:06:57;35.05;;;24.30;;
79122;SDS011;68526;44.600;26.032;2023-03-14T01:07:13;35.20;;;24.50;;
79122;SDS011;68526;44.600;26.032;2023-03-14T01:07:28;36.50;;;24.98;;
79122;SDS011;68526;44.600;26.032;2023-03-14T01:07:44;36.70;;;24.90;;
79122;SDS011;68526;44.600;26.032;2023-03-14T01:08:00;35.47;;;24.80;;
79122;SDS011;68526;44.600;26.032;2023-03-14T01:08:17;34.00;;;23.83;;
79122;SDS011;68526;44.600;26.032;2023-03-14T01:08:33;35.00;;;24.52;;
79122;SDS011;68526;44.600;26.032;2023-03-14T01:08:49;36.20;;;24.92;;
79122;SDS011;68526;44.600;26.032;2023-03-14T01:09:05;34.63;;;23.38;;
79122;SDS011;68526;44.600;26.032;2023-03-14T01:09:21;35.17;;;23.80;;
79122;SDS011;68526;44.600;26.032;2023-03-14T01:09:38;37.40;;;24.85;;
79122;SDS011;68526;44.600;26.032;2023-03-14T01:09:54;39.80;;;25.33;;
79122;SDS011;68526;44.600;26.032;2023-03-14T01:10:10;40.78;;;25.73;;
79122;SDS011;68526;44.600;26.032;2023-03-14T01:10:26;37.75;;;25.23;;
79122;SDS011;68526;44.600;26.032;2023-03-14T01:10:42;37.47;;;25.15;;
79122;SDS011;68526;44.600;26.032;2023-03-14T01:10:59;36.58;;;25.17;;
79122;SDS011;68526;44.600;26.032;2023-03-14T01:11:15;34.30;;;25.07;;
79122;SDS011;68526;44.600;26.032;2023-03-14T01:11:34;37.13;;;25.55;;
79122;SDS011;68526;44.600;26.032;2023-03-14T01:11:51;38.10;;;25.20;;
79122;SDS011;68526;44.600;26.032;2023-03-14T01:12:07;36.40;;;25.20;;
79122;SDS011;68526;44.600;26.032;2023-03-14T01:12:23;36.73;;;25.07;;
79122;SDS011;68526;44.600;26.032;2023-03-14T01:12:39;38.97;;;24.55;;
79122;SDS011;68526;44.600;26.032;2023-03-14T01:12:55;38.90;;;23.55;;
79122;SDS011;68526;44.600;26.032;2023-03-14T01:13:12;35.40;;;23.92;;
79122;SDS011;68526;44.600;26.032;2023-03-14T01:13:27;35.30;;;24.85;;
79122;SDS011;68526;44.600;26.032;2023-03-14T01:13:43;36.63;;;24.63;;
79122;SDS011;68526;44.600;26.032;2023-03-14T01:14:00;36.47;;;25.15;;
79122;SDS011;68526;44.600;26.032;2023-03-14T01:14:16;36.70;;;25.50;;
79122;SDS011;68526;44.600;26.032;2023-03-14T01:14:33;37.40;;;25.27;;
79122;SDS011;68526;44.600;26.032;2023-03-14T01:14:49;36.72;;;24.40;;
79122;SDS011;68526;44.600;26.032;2023-03-14T01:15:07;34.58;;;23.80;;
79122;SDS011;68526;44.600;26.032;2023-03-14T01:15:23;34.42;;;23.88;;
79122;SDS011;68526;44.600;26.032;2023-03-14T01:15:39;36.30;;;24.73;;
79122;SDS011;68526;44.600;26.032;2023-03-14T01:16:00;37.15;;;25.15;;
79122;SDS011;68526;44.600;26.032;2023-03-14T01:16:17;36.95;;;25.13;;
79122;SDS011;68526;44.600;26.032;2023-03-14T01:16:34;37.83;;;25.25;;
79122;SDS011;68526;44.600;26.032;2023-03-14T01:16:50;38.50;;;24.70;;
79122;SDS011;68526;44.600;26.032;2023-03-14T01:17:07;36.30;;;24.60;;
79122;SDS011;68526;44.600;26.032;2023-03-14T01:17:23;36.22;;;24.42;;
79122;SDS011;68526;44.600;26.032;2023-03-14T01:17:39;37.38;;;24.98;;
79122;SDS011;68526;44.600;26.032;2023-03-14T01:17:55;40.30;;;24.90;;
79122;SDS011;68526;44.600;26.032;2023-03-14T01:18:10;38.78;;;25.05;;
79122;SDS011;68526;44.600;26.032;2023-03-14T01:18:26;35.70;;;25.90;;
79122;SDS011;68526;44.600;26.032;2023-03-14T01:18:43;35.17;;;25.63;;
79122;SDS011;68526;44.600;26.032;2023-03-14T01:19:00;35.42;;;24.63;;
79122;SDS011;68526;44.600;26.032;2023-03-14T01:19:16;36.75;;;25.15;;
79122;SDS011;68526;44.600;26.032;2023-03-14T01:19:32;35.53;;;24.97;;
79122;SDS011;68526;44.600;26.032;2023-03-14T01:19:48;35.92;;;24.95;;
79122;SDS011;68526;44.600;26.032;2023-03-14T01:20:04;36.03;;;24.98;;
79122;SDS011;68526;44.600;26.032;2023-03-14T01:20:24;35.17;;;24.48;;
79122;SDS011;68526;44.600;26.032;2023-03-14T01:20:40;34.92;;;24.52;;
79122;SDS011;68526;44.600;26.032;2023-03-14T01:20:56;35.38;;;24.92;;
79122;SDS011;68526;44.600;26.032;2023-03-14T01:21:13;38.08;;;25.52;;
79122;SDS011;68526;44.600;26.032;2023-03-14T01:21:32;39.33;;;25.52;;
79122;SDS011;68526;44.600;26.032;2023-03-14T01:21:50;37.90;;;26.05;;
79122;SDS011;68526;44.600;26.032;2023-03-14T01:22:06;36.58;;;25.73;;
79122;SDS011;68526;44.600;26.032;2023-03-14T01:22:22;37.95;;;25.35;;
79122;SDS011;68526;44.600;26.032;2023-03-14T01:22:38;38.20;;;25.27;;
79122;SDS011;68526;44.600;26.032;2023-03-14T01:22:55;35.97;;;24.80;;
79122;SDS011;68526;44.600;26.032;2023-03-14T01:23:11;36.27;;;25.33;;
79122;SDS011;68526;44.600;26.032;2023-03-14T01:23:26;36.42;;;24.88;;
79122;SDS011;68526;44.600;26.032;2023-03-14T01:23:43;35.92;;;24.60;;
79122;SDS011;68526;44.600;26.032;2023-03-14T01:24:00;38.47;;;25.93;;
79122;SDS011;68526;44.600;26.032;2023-03-14T01:24:18;38.13;;;25.75;;
79122;SDS011;68526;44.600;26.032;2023-03-14T01:24:34;38.25;;;25.38;;
79122;SDS011;68526;44.600;26.032;2023-03-14T01:24:49;37.42;;;25.35;;
79122;SDS011;68526;44.600;26.032;2023-03-14T01:25:06;37.10;;;26.73;;
79122;SDS011;68526;44.600;26.032;2023-03-14T01:25:23;36.97;;;26.42;;
79122;SDS011;68526;44.600;26.032;2023-03-14T01:25:40;36.38;;;25.52;;
79122;SDS011;68526;44.600;26.032;2023-03-14T01:25:56;38.58;;;25.50;;
79122;SDS011;68526;44.600;26.032;2023-03-14T01:26:13;40.00;;;25.58;;
79122;SDS011;68526;44.600;26.032;2023-03-14T01:26:31;38.15;;;25.20;;
79122;SDS011;68526;44.600;26.032;2023-03-14T01:26:47;38.45;;;25.45;;
79122;SDS011;68526;44.600;26.032;2023-03-14T01:27:04;37.97;;;25.38;;
79122;SDS011;68526;44.600;26.032;2023-03-14T01:27:20;37.38;;;25.75;;
79122;SDS011;68526;44.600;26.032;2023-03-14T01:27:36;39.30;;;25.57;;
79122;SDS011;68526;44.600;26.032;2023-03-14T01:27:52;40.05;;;25.23;;
79122;SDS011;68526;44.600;26.032;2023-03-14T01:28:08;38.35;;;26.10;;
79122;SDS011;68526;44.600;26.032;2023-03-14T01:28:24;37.55;;;26.33;;
79122;SDS011;68526;44.600;26.032;2023-03-14T01:28:40;35.95;;;25.35;;
79122;SDS011;68526;44.600;26.032;2023-03-14T01:28:56;35.90;;;25.35;;
79122;SDS011;68526;44.600;26.032;2023-03-14T01:29:12;38.50;;;25.92;;
79122;SDS011;68526;44.600;26.032;2023-03-14T01:29:28;40.10;;;26.70;;
79122;SDS011;68526;44.600;26.032;2023-03-14T01:29:45;40.08;;;26.13;;
79122;SDS011;68526;44.600;26.032;2023-03-14T01:30:02;40.72;;;25.45;;
79122;SDS011;68526;44.600;26.032;2023-03-14T01:30:20;38.90;;;25.27;;
79122;SDS011;68526;44.600;26.032;2023-03-14T01:30:36;37.75;;;25.73;;
79122;SDS011;68526;44.600;26.032;2023-03-14T01:30:51;37.73;;;26.17;;
79122;SDS011;68526;44.600;26.032;2023-03-14T01:31:08;36.65;;;25.33;;
79122;SDS011;68526;44.600;26.032;2023-03-14T01:31:26;36.88;;;25.23;;
79122;SDS011;68526;44.600;26.032;2023-03-14T01:31:42;36.70;;;25.35;;
79122;SDS011;68526;44.600;26.032;2023-03-14T01:31:58;34.73;;;24.77;;
79122;SDS011;68526;44.600;26.032;2023-03-14T01:32:14;34.42;;;24.75;;
79122;SDS011;68526;44.600;26.032;2023-03-14T01:32:38;36.33;;;25.92;;
79122;SDS011;68526;44.600;26.032;2023-03-14T01:32:54;35.97;;;25.60;;
79122;SDS011;68526;44.600;26.032;2023-03-14T01:33:10;38.97;;;25.13;;
79122;SDS011;68526;44.600;26.032;2023-03-14T01:33:28;38.83;;;24.70;;
79122;SDS011;68526;44.600;26.032;2023-03-14T01:33:44;39.07;;;25.57;;
79122;SDS011;68526;44.600;26.032;2023-03-14T01:34:01;40.65;;;25.67;;
79122;SDS011;68526;44.600;26.032;2023-03-14T01:34:18;40.05;;;26.33;;
79122;SDS011;68526;44.600;26.032;2023-03-14T01:34:33;37.75;;;25.92;;
79122;SDS011;68526;44.600;26.032;2023-03-14T01:34:49;38.45;;;24.92;;